sensor_id;sensor_type;location;lat;lon;timestamp;temperature;humidity
80234;DHT22;69542;42.138;24.742;2023-04-24T00:00:54;22.20;33.30
80234;DHT22;69542;42.138;24.742;2023-04-24T00:03:22;22.20;33.30
80234;DHT22;69542;42.138;24.742;2023-04-24T00:05:48;22.20;33.30
80234;DHT22;69542;42.138;24.742;2023-04-24T00:08:17;22.10;33.20
80234;DHT22;69542;42.138;24.742;2023-04-24T00:10:42;22.20;33.30
80234;DHT22;69542;42.138;24.742;2023-04-24T00:13:08;22.10;33.20
80234;DHT22;69542;42.138;24.742;2023-04-24T00:15:36;22.10;33.20
80234;DHT22;69542;42.138;24.742;2023-04-24T00:18:02;22.10;33.20
80234;DHT22;69542;42.138;24.742;2023-04-24T00:20:28;22.20;33.30
80234;DHT22;69542;42.138;24.742;2023-04-24T00:22:55;22.10;33.30
80234;DHT22;69542;42.138;24.742;2023-04-24T00:25:21;22.20;33.30
80234;DHT22;69542;42.138;24.742;2023-04-24T00:27:46;22.10;33.20
80234;DHT22;69542;42.138;24.742;2023-04-24T00:30:12;22.10;33.20
80234;DHT22;69542;42.138;24.742;2023-04-24T00:32:38;22.10;33.20
80234;DHT22;69542;42.138;24.742;2023-04-24T00:35:07;22.10;34.30
80234;DHT22;69542;42.138;24.742;2023-04-24T00:37:33;22.10;33.20
80234;DHT22;69542;42.138;24.742;2023-04-24T00:39:58;22.10;33.20
80234;DHT22;69542;42.138;24.742;2023-04-24T00:42:24;22.10;33.20
80234;DHT22;69542;42.138;24.742;2023-04-24T00:44:51;22.10;33.20
80234;DHT22;69542;42.138;24.742;2023-04-24T00:47:16;22.10;33.20
80234;DHT22;69542;42.138;24.742;2023-04-24T00:49:44;22.10;33.30
80234;DHT22;69542;42.138;24.742;2023-04-24T00:52:09;22.10;33.30
80234;DHT22;69542;42.138;24.742;2023-04-24T00:54:36;22.10;33.40
80234;DHT22;69542;42.138;24.742;2023-04-24T00:57:05;22.10;33.40
80234;DHT22;69542;42.138;24.742;2023-04-24T00:59:31;22.10;33.30
80234;DHT22;69542;42.138;24.742;2023-04-24T01:02:01;22.10;33.30
80234;DHT22;69542;42.138;24.742;2023-04-24T01:04:29;22.10;34.30
80234;DHT22;69542;42.138;24.742;2023-04-24T01:06:55;22.10;33.30
80234;DHT22;69542;42.138;24.742;2023-04-24T01:09:23;22.10;33.30
80234;DHT22;69542;42.138;24.742;2023-04-24T01:11:49;22.10;33.40
80234;DHT22;69542;42.138;24.742;2023-04-24T01:14:15;22.10;33.30
80234;DHT22;69542;42.138;24.742;2023-04-24T01:16:41;22.10;33.30
80234;DHT22;69542;42.138;24.742;2023-04-24T01:19:07;22.10;33.30
80234;DHT22;69542;42.138;24.742;2023-04-24T01:21:37;22.10;33.30
80234;DHT22;69542;42.138;24.742;2023-04-24T01:24:04;22.10;33.30
80234;DHT22;69542;42.138;24.742;2023-04-24T01:26:30;22.10;33.30
80234;DHT22;69542;42.138;24.742;2023-04-24T01:28:56;22.10;33.30
80234;DHT22;69542;42.138;24.742;2023-04-24T01:31:22;22.10;33.30
80234;DHT22;69542;42.138;24.742;2023-04-24T01:33:48;22.10;33.30
80234;DHT22;69542;42.138;24.742;2023-04-24T01:36:14;22.10;34.30
80234;DHT22;69542;42.138;24.742;2023-04-24T01:38:44;22.10;33.30
80234;DHT22;69542;42.138;24.742;2023-04-24T01:41:09;22.10;33.20
80234;DHT22;69542;42.138;24.742;2023-04-24T01:43:35;22.10;33.20
80234;DHT22;69542;42.138;24.742;2023-04-24T01:46:01;22.10;33.30
80234;DHT22;69542;42.138;24.742;2023-04-24T01:48:27;22.10;33.40
80234;DHT22;69542;42.138;24.742;2023-04-24T01:50:56;22.10;33.30
80234;DHT22;69542;42.138;24.742;2023-04-24T01:53:24;22.10;33.30
80234;DHT22;69542;42.138;24.742;2023-04-24T01:55:50;22.10;33.30
80234;DHT22;69542;42.138;24.742;2023-04-24T01:58:15;22.10;33.30
80234;DHT22;69542;42.138;24.742;2023-04-24T02:00:41;22.10;33.20
80234;DHT22;69542;42.138;24.742;2023-04-24T02:03:07;22.10;33.30
80234;DHT22;69542;42.138;24.742;2023-04-24T02:05:35;22.10;33.30
80234;DHT22;69542;42.138;24.742;2023-04-24T02:08:03;22.10;33.30
80234;DHT22;69542;42.138;24.742;2023-04-24T02:10:28;22.10;33.30
80234;DHT22;69542;42.138;24.742;2023-04-24T02:12:54;22.10;33.30
80234;DHT22;69542;42.138;24.742;2023-04-24T02:15:20;22.10;34.30
80234;DHT22;69542;42.138;24.742;2023-04-24T02:17:45;22.10;33.30
80234;DHT22;69542;42.138;24.742;2023-04-24T02:20:11;22.10;33.30
80234;DHT22;69542;42.138;24.742;2023-04-24T02:22:37;22.10;33.30
80234;DHT22;69542;42.138;24.742;2023-04-24T02:25:02;22.10;33.30
80234;DHT22;69542;42.138;24.742;2023-04-24T02:27:31;22.10;33.30
80234;DHT22;69542;42.138;24.742;2023-04-24T02:29:56;22.00;33.20
80234;DHT22;69542;42.138;24.742;2023-04-24T02:32:22;22.00;33.20
80234;DHT22;69542;42.138;24.742;2023-04-24T02:34:48;22.10;33.30
80234;DHT22;69542;42.138;24.742;2023-04-24T02:37:13;22.00;33.20
80234;DHT22;69542;42.138;24.742;2023-04-24T02:39:39;22.00;33.20
80234;DHT22;69542;42.138;24.742;2023-04-24T02:42:05;22.10;33.30
80234;DHT22;69542;42.138;24.742;2023-04-24T02:44:33;22.00;33.20
80234;DHT22;69542;42.138;24.742;2023-04-24T02:46:58;22.00;33.20
80234;DHT22;69542;42.138;24.742;2023-04-24T02:49:24;22.00;33.20
80234;DHT22;69542;42.138;24.742;2023-04-24T02:51:51;22.00;33.30
80234;DHT22;69542;42.138;24.742;2023-04-24T02:54:19;22.00;33.30
80234;DHT22;69542;42.138;24.742;2023-04-24T02:56:45;22.00;33.20
80234;DHT22;69542;42.138;24.742;2023-04-24T02:59:10;22.00;33.30
80234;DHT22;69542;42.138;24.742;2023-04-24T03:01:36;22.00;33.30
80234;DHT22;69542;42.138;24.742;2023-04-24T03:04:02;22.00;33.30
80234;DHT22;69542;42.138;24.742;2023-04-24T03:06:27;22.00;33.20
80234;DHT22;69542;42.138;24.742;2023-04-24T03:08:53;22.00;33.30
80234;DHT22;69542;42.138;24.742;2023-04-24T03:11:20;22.00;33.20
80234;DHT22;69542;42.138;24.742;2023-04-24T03:13:45;22.00;33.20
80234;DHT22;69542;42.138;24.742;2023-04-24T03:16:11;22.00;33.30
80234;DHT22;69542;42.138;24.742;2023-04-24T03:18:37;22.00;33.30
80234;DHT22;69542;42.138;24.742;2023-04-24T03:21:02;22.00;33.30
80234;DHT22;69542;42.138;24.742;2023-04-24T03:23:28;22.00;33.30
80234;DHT22;69542;42.138;24.742;2023-04-24T03:25:54;22.00;33.30
80234;DHT22;69542;42.138;24.742;2023-04-24T03:28:20;22.00;33.20
80234;DHT22;69542;42.138;24.742;2023-04-24T03:30:46;22.00;33.30
80234;DHT22;69542;42.138;24.742;2023-04-24T03:33:11;22.00;33.30
80234;DHT22;69542;42.138;24.742;2023-04-24T03:35:37;22.00;33.30
80234;DHT22;69542;42.138;24.742;2023-04-24T03:38:03;22.00;33.30
80234;DHT22;69542;42.138;24.742;2023-04-24T03:40:30;22.00;33.20
80234;DHT22;69542;42.138;24.742;2023-04-24T03:42:55;22.00;33.20
80234;DHT22;69542;42.138;24.742;2023-04-24T03:45:21;22.00;33.20
80234;DHT22;69542;42.138;24.742;2023-04-24T03:47:47;22.00;33.20
80234;DHT22;69542;42.138;24.742;2023-04-24T03:50:12;22.00;33.20
80234;DHT22;69542;42.138;24.742;2023-04-24T03:52:38;22.00;33.20
80234;DHT22;69542;42.138;24.742;2023-04-24T03:55:06;22.00;33.20
80234;DHT22;69542;42.138;24.742;2023-04-24T03:57:32;22.00;33.20
80234;DHT22;69542;42.138;24.742;2023-04-24T03:59:58;22.10;33.20
80234;DHT22;69542;42.138;24.742;2023-04-24T04:02:24;22.10;33.20
80234;DHT22;69542;42.138;24.742;2023-04-24T04:04:49;22.10;33.20
80234;DHT22;69542;42.138;24.742;2023-04-24T04:07:15;22.10;33.10
80234;DHT22;69542;42.138;24.742;2023-04-24T04:09:41;22.10;34.50
80234;DHT22;69542;42.138;24.742;2023-04-24T04:12:06;21.90;35.10
80234;DHT22;69542;42.138;24.742;2023-04-24T04:14:32;21.70;36.60
80234;DHT22;69542;42.138;24.742;2023-04-24T04:16:57;21.50;38.10
80234;DHT22;69542;42.138;24.742;2023-04-24T04:19:23;21.40;37.20
80234;DHT22;69542;42.138;24.742;2023-04-24T04:21:49;21.30;36.00
80234;DHT22;69542;42.138;24.742;2023-04-24T04:24:19;21.20;35.20
80234;DHT22;69542;42.138;24.742;2023-04-24T04:26:46;21.20;34.60
80234;DHT22;69542;42.138;24.742;2023-04-24T04:29:13;21.10;34.30
80234;DHT22;69542;42.138;24.742;2023-04-24T04:31:39;21.00;34.20
80234;DHT22;69542;42.138;24.742;2023-04-24T04:34:05;21.00;34.30
80234;DHT22;69542;42.138;24.742;2023-04-24T04:36:31;20.90;34.20
80234;DHT22;69542;42.138;24.742;2023-04-24T04:38:56;20.90;34.20
80234;DHT22;69542;42.138;24.742;2023-04-24T04:41:24;20.80;34.20
80234;DHT22;69542;42.138;24.742;2023-04-24T04:43:52;20.80;34.20
80234;DHT22;69542;42.138;24.742;2023-04-24T04:46:18;20.70;34.20
80234;DHT22;69542;42.138;24.742;2023-04-24T04:48:43;20.70;34.40
80234;DHT22;69542;42.138;24.742;2023-04-24T04:51:09;20.60;34.50
80234;DHT22;69542;42.138;24.742;2023-04-24T04:53:35;20.60;35.40
80234;DHT22;69542;42.138;24.742;2023-04-24T04:56:01;20.50;34.40
80234;DHT22;69542;42.138;24.742;2023-04-24T04:58:26;20.50;34.30
80234;DHT22;69542;42.138;24.742;2023-04-24T05:00:52;20.50;34.40
80234;DHT22;69542;42.138;24.742;2023-04-24T05:03:20;20.50;34.40
80234;DHT22;69542;42.138;24.742;2023-04-24T05:05:46;20.40;34.60
80234;DHT22;69542;42.138;24.742;2023-04-24T05:08:12;20.30;34.80
80234;DHT22;69542;42.138;24.742;2023-04-24T05:10:37;20.30;35.00
80234;DHT22;69542;42.138;24.742;2023-04-24T05:13:03;20.30;35.00
80234;DHT22;69542;42.138;24.742;2023-04-24T05:15:30;20.20;35.70
80234;DHT22;69542;42.138;24.742;2023-04-24T05:17:55;20.20;35.20
80234;DHT22;69542;42.138;24.742;2023-04-24T05:20:21;20.30;35.30
80234;DHT22;69542;42.138;24.742;2023-04-24T05:22:47;20.30;35.20
80234;DHT22;69542;42.138;24.742;2023-04-24T05:25:13;20.30;35.30
80234;DHT22;69542;42.138;24.742;2023-04-24T05:27:39;20.30;35.20
80234;DHT22;69542;42.138;24.742;2023-04-24T05:30:05;20.30;35.20
80234;DHT22;69542;42.138;24.742;2023-04-24T05:32:31;20.30;35.20
80234;DHT22;69542;42.138;24.742;2023-04-24T05:34:57;20.30;35.40
80234;DHT22;69542;42.138;24.742;2023-04-24T05:37:22;20.30;35.30
80234;DHT22;69542;42.138;24.742;2023-04-24T05:39:48;20.30;35.50
80234;DHT22;69542;42.138;24.742;2023-04-24T05:42:14;20.30;35.50
80234;DHT22;69542;42.138;24.742;2023-04-24T05:44:40;20.20;35.60
80234;DHT22;69542;42.138;24.742;2023-04-24T05:47:05;20.20;35.80
80234;DHT22;69542;42.138;24.742;2023-04-24T05:49:31;20.30;35.80
80234;DHT22;69542;42.138;24.742;2023-04-24T05:51:57;20.30;35.80
80234;DHT22;69542;42.138;24.742;2023-04-24T05:54:23;20.30;35.80
80234;DHT22;69542;42.138;24.742;2023-04-24T05:56:49;20.30;35.70
80234;DHT22;69542;42.138;24.742;2023-04-24T05:59:16;20.30;35.70
80234;DHT22;69542;42.138;24.742;2023-04-24T06:01:41;20.30;35.80
80234;DHT22;69542;42.138;24.742;2023-04-24T06:04:07;20.40;35.80
80234;DHT22;69542;42.138;24.742;2023-04-24T06:06:35;20.30;35.70
80234;DHT22;69542;42.138;24.742;2023-04-24T06:09:00;20.30;35.80
80234;DHT22;69542;42.138;24.742;2023-04-24T06:11:26;20.30;35.90
80234;DHT22;69542;42.138;24.742;2023-04-24T06:13:52;20.30;35.80
80234;DHT22;69542;42.138;24.742;2023-04-24T06:16:17;20.40;35.80
80234;DHT22;69542;42.138;24.742;2023-04-24T06:18:45;20.40;35.80
80234;DHT22;69542;42.138;24.742;2023-04-24T06:21:12;20.40;35.60
80234;DHT22;69542;42.138;24.742;2023-04-24T06:23:38;20.50;35.50
80234;DHT22;69542;42.138;24.742;2023-04-24T06:26:04;20.70;35.50
80234;DHT22;69542;42.138;24.742;2023-04-24T06:28:30;20.80;35.20
80234;DHT22;69542;42.138;24.742;2023-04-24T06:30:58;20.90;35.20
80234;DHT22;69542;42.138;24.742;2023-04-24T06:33:23;21.00;35.00
80234;DHT22;69542;42.138;24.742;2023-04-24T06:35:49;21.10;34.90
80234;DHT22;69542;42.138;24.742;2023-04-24T06:38:15;21.20;34.70
80234;DHT22;69542;42.138;24.742;2023-04-24T06:40:41;21.20;34.60
80234;DHT22;69542;42.138;24.742;2023-04-24T06:43:09;21.30;34.50
80234;DHT22;69542;42.138;24.742;2023-04-24T06:45:35;21.30;34.30
80234;DHT22;69542;42.138;24.742;2023-04-24T06:48:00;21.40;34.30
80234;DHT22;69542;42.138;24.742;2023-04-24T06:50:26;21.50;34.20
80234;DHT22;69542;42.138;24.742;2023-04-24T06:52:52;21.50;34.10
80234;DHT22;69542;42.138;24.742;2023-04-24T06:55:17;21.60;34.20
80234;DHT22;69542;42.138;24.742;2023-04-24T06:57:44;21.60;34.00
80234;DHT22;69542;42.138;24.742;2023-04-24T07:00:10;21.60;33.90
80234;DHT22;69542;42.138;24.742;2023-04-24T07:02:36;21.70;33.90
80234;DHT22;69542;42.138;24.742;2023-04-24T07:05:03;21.70;33.80
80234;DHT22;69542;42.138;24.742;2023-04-24T07:07:29;21.80;33.80
80234;DHT22;69542;42.138;24.742;2023-04-24T07:09:55;21.80;33.70
80234;DHT22;69542;42.138;24.742;2023-04-24T07:12:21;21.90;33.70
80234;DHT22;69542;42.138;24.742;2023-04-24T07:14:47;21.90;33.60
80234;DHT22;69542;42.138;24.742;2023-04-24T07:17:13;21.90;33.60
80234;DHT22;69542;42.138;24.742;2023-04-24T07:19:40;21.90;33.50
80234;DHT22;69542;42.138;24.742;2023-04-24T07:22:06;22.00;34.50
80234;DHT22;69542;42.138;24.742;2023-04-24T07:24:31;22.00;33.50
80234;DHT22;69542;42.138;24.742;2023-04-24T07:26:58;22.00;33.40
80234;DHT22;69542;42.138;24.742;2023-04-24T07:29:24;22.00;33.30
80234;DHT22;69542;42.138;24.742;2023-04-24T07:31:50;22.10;33.40
80234;DHT22;69542;42.138;24.742;2023-04-24T07:34:15;22.10;33.20
80234;DHT22;69542;42.138;24.742;2023-04-24T07:36:41;22.10;33.30
80234;DHT22;69542;42.138;24.742;2023-04-24T07:39:07;22.20;33.20
80234;DHT22;69542;42.138;24.742;2023-04-24T07:41:33;22.20;33.10
80234;DHT22;69542;42.138;24.742;2023-04-24T07:43:59;22.20;33.10
80234;DHT22;69542;42.138;24.742;2023-04-24T07:46:25;22.20;33.10
80234;DHT22;69542;42.138;24.742;2023-04-24T07:48:53;22.20;33.10
80234;DHT22;69542;42.138;24.742;2023-04-24T07:51:19;22.20;33.00
80234;DHT22;69542;42.138;24.742;2023-04-24T07:53:47;22.30;33.00
80234;DHT22;69542;42.138;24.742;2023-04-24T07:56:13;22.30;33.00
80234;DHT22;69542;42.138;24.742;2023-04-24T07:58:39;22.30;33.00
80234;DHT22;69542;42.138;24.742;2023-04-24T08:01:05;22.30;32.90
80234;DHT22;69542;42.138;24.742;2023-04-24T08:03:31;22.30;33.00
80234;DHT22;69542;42.138;24.742;2023-04-24T08:05:56;22.30;32.90
80234;DHT22;69542;42.138;24.742;2023-04-24T08:08:22;22.40;33.00
80234;DHT22;69542;42.138;24.742;2023-04-24T08:10:49;22.40;32.90
80234;DHT22;69542;42.138;24.742;2023-04-24T08:13:14;22.40;32.80
80234;DHT22;69542;42.138;24.742;2023-04-24T08:15:40;22.40;32.80
80234;DHT22;69542;42.138;24.742;2023-04-24T08:18:06;22.40;32.80
80234;DHT22;69542;42.138;24.742;2023-04-24T08:20:32;22.40;32.80
80234;DHT22;69542;42.138;24.742;2023-04-24T08:22:58;22.40;32.80
80234;DHT22;69542;42.138;24.742;2023-04-24T08:25:23;22.40;32.80
80234;DHT22;69542;42.138;24.742;2023-04-24T08:27:50;22.40;32.80
80234;DHT22;69542;42.138;24.742;2023-04-24T08:30:16;22.40;32.80
80234;DHT22;69542;42.138;24.742;2023-04-24T08:32:42;22.40;32.80
80234;DHT22;69542;42.138;24.742;2023-04-24T08:35:08;22.50;32.80
80234;DHT22;69542;42.138;24.742;2023-04-24T08:37:35;22.50;32.90
